Time;durP1;ratioP1;P1;durP2;ratioP2;P2;SDS_P1;SDS_P2;PMS_P1;PMS_P2;Temp;Humidity;BMP_temperature;BMP_pressure;BME280_temperature;BME280_humidity;BME280_pressure;Samples;Min_cycle;Max_cycle;Signal;HPM_P1;HPM_P2
2022/01/27 00:00:43;;;;;;;28.67;13.05;;;6.30;99.90;;;;;;5093089;28;20040;-75
2022/01/27 00:05:40;;;;;;;27.80;14.57;;;6.30;99.90;;;;;;5085833;28;20110;-75
2022/01/27 00:13:01;;;;;;;16.77;9.65;;;6.20;99.90;;;;;;5075053;28;20519;-75
2022/01/27 00:15:32;;;;;;;28.70;15.02;;;6.50;99.90;;;;;;5057997;28;20132;-74
2022/01/27 00:17:59;;;;;;;19.80;10.30;;;6.40;99.90;;;;;;5066516;28;20077;-75
2022/01/27 00:20:25;;;;;;;29.70;16.63;;;6.40;99.90;;;;;;5076077;28;20044;-75
2022/01/27 00:22:51;;;;;;;31.63;15.95;;;6.30;99.90;;;;;;5077665;28;20104;-74
2022/01/27 00:25:16;;;;;;;30.17;16.17;;;6.40;99.90;;;;;;5094979;28;20043;-75
2022/01/27 00:27:42;;;;;;;25.73;13.93;;;6.20;99.90;;;;;;5077885;28;20048;-75
2022/01/27 00:30:09;;;;;;;30.35;14.63;;;6.30;99.90;;;;;;5094761;28;20161;-75
2022/01/27 00:32:35;;;;;;;30.77;15.98;;;6.40;99.90;;;;;;5074794;28;20385;-75
2022/01/27 00:35:02;;;;;;;19.48;8.75;;;6.30;99.90;;;;;;5077904;28;20043;-75
2022/01/27 00:37:28;;;;;;;26.45;15.02;;;6.40;99.90;;;;;;5078035;28;20036;-75
2022/01/27 00:39:53;;;;;;;27.48;13.88;;;6.30;99.90;;;;;;5094858;28;20036;-75
2022/01/27 00:42:19;;;;;;;24.27;11.55;;;6.20;99.90;;;;;;5094829;28;20032;-74
2022/01/27 00:44:45;;;;;;;27.25;14.05;;;6.20;99.90;;;;;;5077739;28;20132;-75
2022/01/27 00:47:11;;;;;;;26.60;14.10;;;6.40;99.90;;;;;;5076966;28;20114;-75
2022/01/27 00:49:37;;;;;;;22.60;10.32;;;6.40;99.90;;;;;;5094222;28;20064;-74
2022/01/27 00:52:04;;;;;;;26.75;13.00;;;6.50;99.90;;;;;;5094399;28;20056;-75
2022/01/27 00:54:30;;;;;;;22.10;11.63;;;6.40;99.90;;;;;;5077594;28;20484;-75
2022/01/27 00:59:39;;;;;;;27.00;13.38;;;6.30;99.90;;;;;;5094231;28;20042;-75
2022/01/27 01:02:15;;;;;;;23.63;11.52;;;6.40;99.90;;;;;;5094348;28;20040;-75
2022/01/27 01:04:45;;;;;;;28.40;14.90;;;6.30;99.90;;;;;;5093692;28;20397;-75
2022/01/27 01:07:12;;;;;;;33.20;16.35;;;6.30;99.90;;;;;;5077570;28;20507;-75
2022/01/27 01:15:00;;;;;;;25.75;12.40;;;6.20;99.90;;;;;;5087094;28;20083;-74
2022/01/27 01:17:47;;;;;;;27.05;14.23;;;6.30;99.90;;;;;;5077183;28;20036;-75
2022/01/27 01:20:27;;;;;;;29.23;15.40;;;6.30;99.90;;;;;;5093916;28;20071;-74
2022/01/27 01:31:28;;;;;;;32.83;15.90;;;6.20;99.90;;;;;;5092869;28;20044;-75
2022/01/27 01:34:08;;;;;;;31.20;16.30;;;6.20;99.90;;;;;;5076775;28;20032;-75
2022/01/27 01:36:36;;;;;;;23.60;12.00;;;6.10;99.90;;;;;;5093879;28;20114;-75
2022/01/27 01:39:06;;;;;;;24.60;12.65;;;6.20;99.90;;;;;;5076713;28;20141;-75
2022/01/27 01:41:32;;;;;;;33.15;17.25;;;6.20;99.90;;;;;;5093470;28;20122;-74
2022/01/27 01:43:58;;;;;;;20.58;10.55;;;6.10;99.90;;;;;;5093493;28;20484;-74
2022/01/27 01:46:23;;;;;;;29.45;15.27;;;6.20;99.90;;;;;;5092028;28;20043;-75
2022/01/27 01:48:49;;;;;;;21.67;10.43;;;6.10;99.90;;;;;;5093452;28;20066;-75
2022/01/27 01:51:26;;;;;;;20.90;9.65;;;6.30;99.90;;;;;;5093108;28;20052;-75
2022/01/27 01:53:53;;;;;;;24.75;13.85;;;6.30;99.90;;;;;;5071316;28;20028;-75
2022/01/27 01:56:19;;;;;;;23.48;12.10;;;6.20;99.90;;;;;;5072998;28;20040;-74
2022/01/27 01:58:44;;;;;;;26.60;13.38;;;6.20;99.90;;;;;;5072423;28;20124;-75
2022/01/27 02:01:10;;;;;;;20.25;10.43;;;6.10;99.90;;;;;;5080410;28;20039;-74
2022/01/27 02:03:36;;;;;;;22.17;12.25;;;6.10;99.90;;;;;;5093321;28;20032;-75
2022/01/27 02:06:01;;;;;;;26.92;14.18;;;6.10;99.90;;;;;;5093015;28;20097;-75
2022/01/27 02:08:36;;;;;;;29.33;15.95;;;6.00;99.90;;;;;;5075251;28;20032;-75
2022/01/27 02:19:21;;;;;;;23.30;11.40;;;6.00;99.90;;;;;;5091429;28;20040;-74
2022/01/27 02:21:50;;;;;;;22.30;11.75;;;6.30;99.90;;;;;;5092681;28;20559;-74
2022/01/27 02:24:16;;;;;;;25.02;12.20;;;6.30;99.90;;;;;;5092121;28;20089;-74
2022/01/27 02:26:43;;;;;;;28.05;14.20;;;6.40;99.90;;;;;;5092038;28;20115;-75
2022/01/27 02:29:09;;;;;;;22.20;11.60;;;6.20;99.90;;;;;;5090864;28;20039;-75
2022/01/27 02:31:35;;;;;;;23.52;12.23;;;6.30;99.90;;;;;;5091816;28;20040;-75
2022/01/27 02:34:01;;;;;;;22.35;12.98;;;6.40;99.90;;;;;;5091935;28;20341;-75
2022/01/27 02:36:27;;;;;;;25.95;15.02;;;6.30;99.90;;;;;;5091026;28;20089;-74
2022/01/27 02:38:54;;;;;;;23.65;12.00;;;6.20;99.90;;;;;;5074754;28;20099;-75
2022/01/27 02:41:22;;;;;;;22.38;11.10;;;6.30;99.90;;;;;;5074544;28;20522;-75
2022/01/27 02:43:48;;;;;;;32.45;14.68;;;6.30;99.90;;;;;;5075022;28;20047;-75
2022/01/27 02:46:24;;;;;;;23.27;12.57;;;6.10;99.90;;;;;;5091010;28;20043;-75
2022/01/27 02:48:50;;;;;;;28.00;13.75;;;6.20;99.90;;;;;;5075097;28;20400;-75
2022/01/27 02:51:15;;;;;;;29.88;17.23;;;6.30;99.90;;;;;;5091179;28;20044;-75
2022/01/27 02:53:41;;;;;;;28.73;15.27;;;6.30;99.90;;;;;;5092291;28;20039;-75
2022/01/27 02:56:07;;;;;;;25.35;13.80;;;6.30;99.90;;;;;;5074813;28;20051;-75
2022/01/27 02:58:33;;;;;;;27.23;12.70;;;6.40;99.90;;;;;;5074857;28;20028;-75
2022/01/27 03:00:58;;;;;;;32.42;19.08;;;6.40;99.90;;;;;;5091624;28;20036;-75
2022/01/27 03:03:24;;;;;;;23.88;14.27;;;6.30;99.90;;;;;;5073151;28;20040;-75
2022/01/27 03:05:49;;;;;;;26.98;12.50;;;6.20;99.90;;;;;;5088973;28;20488;-75
2022/01/27 03:08:15;;;;;;;21.67;14.05;;;6.30;99.90;;;;;;5074948;28;20032;-75
2022/01/27 03:10:48;;;;;;;26.42;15.52;;;6.40;99.90;;;;;;5069391;28;20061;-75
2022/01/27 03:13:14;;;;;;;26.45;15.15;;;6.40;99.90;;;;;;5085830;28;20031;-75
2022/01/27 03:15:40;;;;;;;24.90;14.20;;;6.30;99.90;;;;;;5087629;28;20048;-75
2022/01/27 03:18:06;;;;;;;32.58;17.77;;;6.40;99.90;;;;;;5090391;28;20036;-75
2022/01/27 03:20:33;;;;;;;27.10;18.20;;;6.20;99.90;;;;;;5091934;28;20036;-75
2022/01/27 03:23:02;;;;;;;26.92;13.48;;;6.20;99.90;;;;;;5091228;28;20040;-75
2022/01/27 03:25:28;;;;;;;28.25;16.33;;;6.50;99.90;;;;;;5070492;28;20040;-75
2022/01/27 03:27:54;;;;;;;24.02;13.05;;;6.40;99.90;;;;;;5090354;28;20039;-75
2022/01/27 03:30:19;;;;;;;30.13;17.85;;;6.30;99.90;;;;;;5090580;28;20028;-75
2022/01/27 03:32:45;;;;;;;28.95;13.02;;;6.30;99.90;;;;;;5070378;28;20037;-75
2022/01/27 03:35:11;;;;;;;25.52;13.23;;;6.40;99.90;;;;;;5090681;28;20032;-75
2022/01/27 03:37:37;;;;;;;28.77;15.65;;;6.40;99.90;;;;;;5089991;28;21427;-75
2022/01/27 03:40:03;;;;;;;29.63;14.25;;;6.40;99.90;;;;;;5091017;28;20039;-75
2022/01/27 03:42:29;;;;;;;31.67;18.38;;;6.40;99.90;;;;;;5070088;28;20071;-75
2022/01/27 03:44:55;;;;;;;27.45;15.02;;;6.40;99.90;;;;;;5074182;28;20090;-75
2022/01/27 03:47:20;;;;;;;19.85;11.18;;;6.50;99.90;;;;;;5074888;28;20535;-75
2022/01/27 03:49:46;;;;;;;21.25;10.57;;;6.40;99.90;;;;;;5072751;28;20724;-75
2022/01/27 03:52:12;;;;;;;34.35;19.73;;;6.50;99.90;;;;;;5087373;28;20504;-75
2022/01/27 03:54:37;;;;;;;32.90;17.98;;;6.20;99.90;;;;;;5071962;28;20484;-75
2022/01/27 03:57:03;;;;;;;26.52;14.43;;;6.30;99.90;;;;;;5089653;28;20136;-75
2022/01/27 03:59:29;;;;;;;26.30;13.07;;;6.30;99.90;;;;;;5091226;28;20036;-75
2022/01/27 04:01:56;;;;;;;27.55;15.65;;;6.50;99.90;;;;;;5090364;28;20492;-75
2022/01/27 04:04:21;;;;;;;27.35;16.38;;;6.20;99.90;;;;;;5064212;28;20118;-75
2022/01/27 04:06:51;;;;;;;27.58;14.73;;;6.30;99.90;;;;;;5086951;28;21023;-75
2022/01/27 04:09:16;;;;;;;19.75;9.60;;;6.40;99.90;;;;;;5071933;28;20039;-75
2022/01/27 04:11:42;;;;;;;23.50;12.82;;;6.50;99.90;;;;;;5069171;28;20040;-75
2022/01/27 04:14:10;;;;;;;27.48;15.45;;;6.60;99.90;;;;;;5073602;28;20028;-75
2022/01/27 04:16:36;;;;;;;33.70;14.02;;;6.40;99.90;;;;;;5076264;28;20036;-75
2022/01/27 04:19:03;;;;;;;33.58;18.27;;;6.40;99.90;;;;;;5078289;28;20063;-75
2022/01/27 04:21:28;;;;;;;18.85;10.88;;;6.40;99.90;;;;;;5077682;28;20115;-75
2022/01/27 04:23:54;;;;;;;31.52;17.33;;;6.60;99.90;;;;;;5094555;28;20556;-75
2022/01/27 04:26:26;;;;;;;28.15;13.82;;;6.40;99.90;;;;;;5078093;28;20052;-75
2022/01/27 04:28:53;;;;;;;30.17;16.80;;;6.40;99.90;;;;;;5076904;28;20043;-75
2022/01/27 04:31:19;;;;;;;32.72;16.55;;;6.50;99.90;;;;;;5094681;28;20043;-75
2022/01/27 04:33:45;;;;;;;25.33;12.23;;;6.40;99.90;;;;;;5092407;28;20076;-75
2022/01/27 04:36:26;;;;;;;26.00;12.85;;;6.40;99.90;;;;;;5078140;28;20059;-75
2022/01/27 04:39:00;;;;;;;31.65;17.95;;;6.40;99.90;;;;;;5094011;28;20036;-76
2022/01/27 04:41:36;;;;;;;25.25;11.70;;;6.30;99.90;;;;;;5076897;28;20047;-75
2022/01/27 04:44:18;;;;;;;23.92;13.18;;;6.50;99.90;;;;;;5093976;28;20086;-75
2022/01/27 04:46:51;;;;;;;27.10;14.00;;;6.50;99.90;;;;;;5078031;28;20043;-75
2022/01/27 04:49:17;;;;;;;26.27;15.15;;;6.60;99.90;;;;;;5076748;28;20072;-75
2022/01/27 04:51:43;;;;;;;33.00;15.10;;;6.60;99.90;;;;;;5077507;28;20090;-75
2022/01/27 04:54:16;;;;;;;22.13;10.73;;;6.50;99.90;;;;;;5076931;28;20070;-75
2022/01/27 04:56:42;;;;;;;21.30;10.80;;;6.50;99.90;;;;;;5077640;28;20039;-75
2022/01/27 04:59:17;;;;;;;23.85;12.57;;;6.70;99.90;;;;;;5093760;28;20032;-75
2022/01/27 05:01:51;;;;;;;27.20;11.88;;;6.70;99.90;;;;;;5093495;28;20052;-75
2022/01/27 05:04:19;;;;;;;26.20;12.18;;;6.60;99.90;;;;;;5094368;28;20051;-76
2022/01/27 05:06:47;;;;;;;29.33;12.30;;;6.60;99.90;;;;;;5093533;28;20043;-75
2022/01/27 05:09:13;;;;;;;28.73;12.63;;;6.50;99.90;;;;;;5093630;28;20075;-76
2022/01/27 05:11:48;;;;;;;20.98;11.35;;;6.50;99.90;;;;;;5077135;28;20484;-75
2022/01/27 05:14:24;;;;;;;28.45;14.57;;;6.60;99.90;;;;;;5076591;28;20036;-76
2022/01/27 05:16:51;;;;;;;29.45;15.82;;;6.40;99.90;;;;;;5075401;28;20111;-75
2022/01/27 05:19:17;;;;;;;30.92;13.60;;;6.50;99.90;;;;;;5089336;28;20512;-75
2022/01/27 05:21:43;;;;;;;31.67;16.27;;;6.60;99.90;;;;;;5093360;28;20074;-75
2022/01/27 05:24:09;;;;;;;25.95;14.85;;;6.50;99.90;;;;;;5075695;28;20119;-76
2022/01/27 05:26:36;;;;;;;26.30;13.55;;;6.50;99.90;;;;;;5091838;28;20075;-76
2022/01/27 05:29:06;;;;;;;26.00;13.38;;;6.60;99.90;;;;;;5092195;28;20365;-75
2022/01/27 05:31:32;;;;;;;30.52;13.05;;;6.60;99.90;;;;;;5076038;28;20400;-75
2022/01/27 05:33:57;;;;;;;31.58;16.55;;;6.70;99.90;;;;;;5090038;28;20044;-75
2022/01/27 05:36:23;;;;;;;30.25;15.82;;;6.60;99.90;;;;;;5075470;28;20040;-75
2022/01/27 05:38:48;;;;;;;28.35;15.15;;;6.40;99.90;;;;;;5075905;28;20036;-75
2022/01/27 05:41:14;;;;;;;26.75;13.70;;;6.50;99.90;;;;;;5076521;28;20404;-76
2022/01/27 05:43:40;;;;;;;29.50;11.93;;;6.50;99.90;;;;;;5075703;28;20044;-75
2022/01/27 05:46:06;;;;;;;30.30;15.27;;;6.60;99.90;;;;;;5093515;28;20097;-75
2022/01/27 05:48:32;;;;;;;30.25;15.52;;;6.40;99.90;;;;;;5076219;28;20434;-75
2022/01/27 05:50:57;;;;;;;33.03;15.38;;;6.40;99.90;;;;;;5075560;28;20048;-75
2022/01/27 05:53:24;;;;;;;29.25;14.45;;;6.40;99.90;;;;;;5090841;28;20040;-75
2022/01/27 05:55:50;;;;;;;31.95;14.73;;;6.40;99.90;;;;;;5075394;28;20060;-75
2022/01/27 05:58:15;;;;;;;30.40;15.68;;;6.30;99.90;;;;;;5090292;28;20565;-75
2022/01/27 06:00:41;;;;;;;27.35;14.45;;;6.30;99.90;;;;;;5075338;28;20024;-75
2022/01/27 06:03:07;;;;;;;24.67;11.18;;;6.40;99.90;;;;;;5091645;28;20499;-75
2022/01/27 06:05:33;;;;;;;35.92;15.80;;;6.40;99.90;;;;;;5089442;28;20139;-74
2022/01/27 06:07:59;;;;;;;31.50;14.70;;;6.30;99.90;;;;;;5092152;28;20047;-75
2022/01/27 06:10:24;;;;;;;29.75;15.30;;;6.40;99.90;;;;;;5072800;28;20122;-75
2022/01/27 06:12:53;;;;;;;29.02;13.57;;;6.40;99.90;;;;;;5087080;28;20078;-75
2022/01/27 06:15:20;;;;;;;28.70;14.43;;;6.50;99.90;;;;;;5075284;28;20068;-75
2022/01/27 06:17:46;;;;;;;29.42;14.00;;;6.40;99.90;;;;;;5073675;28;20066;-75
2022/01/27 06:20:12;;;;;;;25.90;12.90;;;6.40;99.90;;;;;;5074361;28;20480;-74
2022/01/27 06:22:37;;;;;;;25.98;14.43;;;6.40;99.90;;;;;;5074223;28;20039;-74
2022/01/27 06:25:04;;;;;;;24.02;10.25;;;6.40;99.90;;;;;;5073836;28;20552;-74
2022/01/27 06:27:29;;;;;;;22.48;11.57;;;6.40;99.90;;;;;;5073712;28;20047;-75
2022/01/27 06:29:55;;;;;;;24.60;10.02;;;6.50;99.90;;;;;;5073075;28;20493;-75
2022/01/27 06:32:20;;;;;;;16.85;8.15;;;6.60;99.90;;;;;;5091088;28;20071;-74
2022/01/27 06:34:46;;;;;;;24.42;12.68;;;6.60;99.90;;;;;;5089972;28;20040;-74
2022/01/27 06:37:13;;;;;;;25.77;12.75;;;6.70;99.90;;;;;;5092617;28;20500;-74
2022/01/27 06:39:38;;;;;;;16.48;6.38;;;6.60;99.90;;;;;;5089664;28;20065;-74
2022/01/27 06:42:05;;;;;;;22.83;12.00;;;6.60;99.90;;;;;;5090701;28;20043;-74
2022/01/27 06:44:31;;;;;;;18.98;9.02;;;6.50;99.90;;;;;;5090770;28;20118;-74
2022/01/27 06:46:56;;;;;;;20.80;11.73;;;6.70;99.90;;;;;;5087785;28;20132;-74
2022/01/27 06:49:22;;;;;;;24.83;12.13;;;6.70;99.90;;;;;;5088340;28;20089;-73
2022/01/27 06:51:47;;;;;;;22.98;11.18;;;6.60;99.90;;;;;;5075023;28;20062;-74
2022/01/27 06:54:16;;;;;;;23.58;10.43;;;6.50;99.90;;;;;;5090384;28;20028;-73
2022/01/27 06:56:41;;;;;;;25.85;10.50;;;6.50;99.90;;;;;;5073539;28;20391;-73
2022/01/27 06:59:07;;;;;;;13.55;7.45;;;6.50;99.90;;;;;;5089481;28;20024;-73
2022/01/27 07:01:33;;;;;;;19.27;9.13;;;6.60;99.90;;;;;;5088775;28;20044;-73
2022/01/27 07:03:58;;;;;;;20.23;10.60;;;6.70;99.90;;;;;;5075218;28;20043;-73
2022/01/27 07:06:24;;;;;;;18.85;9.63;;;6.70;99.90;;;;;;5074909;28;20067;-74
2022/01/27 07:08:49;;;;;;;22.05;10.38;;;6.60;99.90;;;;;;5075097;28;20462;-73
2022/01/27 07:11:15;;;;;;;17.00;8.20;;;6.60;99.90;;;;;;5092041;28;20043;-73
2022/01/27 07:13:41;;;;;;;19.40;9.75;;;6.80;99.90;;;;;;5091386;28;20040;-73
2022/01/27 07:16:07;;;;;;;14.35;5.90;;;6.70;99.90;;;;;;5074715;28;20507;-73
2022/01/27 07:18:33;;;;;;;18.25;8.40;;;6.70;99.90;;;;;;5091848;28;20473;-73
2022/01/27 07:20:59;;;;;;;19.13;8.93;;;6.70;99.90;;;;;;5073692;28;20157;-73
2022/01/27 07:23:25;;;;;;;12.93;6.93;;;6.60;99.90;;;;;;5074898;28;20032;-73
2022/01/27 07:25:50;;;;;;;14.02;6.38;;;6.80;99.90;;;;;;5089364;28;20039;-73
2022/01/27 07:28:16;;;;;;;19.00;9.07;;;6.80;99.90;;;;;;5074301;28;20400;-73
2022/01/27 07:30:41;;;;;;;16.90;8.88;;;6.80;99.90;;;;;;5091851;28;20101;-73
2022/01/27 07:33:07;;;;;;;19.30;8.95;;;6.70;99.90;;;;;;5086749;28;20047;-73
2022/01/27 07:35:32;;;;;;;16.15;9.07;;;6.80;99.90;;;;;;5089033;28;20032;-73
2022/01/27 07:37:58;;;;;;;17.60;8.52;;;6.80;99.90;;;;;;5091276;28;20107;-73
2022/01/27 07:40:24;;;;;;;15.95;7.75;;;6.80;99.90;;;;;;5088753;28;20097;-73
2022/01/27 07:42:49;;;;;;;18.92;9.57;;;6.80;99.90;;;;;;5091797;28;20059;-73
2022/01/27 07:45:15;;;;;;;21.13;9.07;;;6.70;99.90;;;;;;5089889;28;20481;-73
2022/01/27 07:47:40;;;;;;;15.25;6.68;;;6.80;99.90;;;;;;5073524;28;20050;-73
2022/01/27 07:50:06;;;;;;;14.93;8.38;;;6.80;99.90;;;;;;5080236;28;20095;-73
2022/01/27 07:52:32;;;;;;;16.77;8.07;;;6.80;99.90;;;;;;5094162;28;20411;-73
2022/01/27 07:54:58;;;;;;;20.80;7.95;;;6.80;99.90;;;;;;5092301;28;20407;-73
2022/01/27 07:57:24;;;;;;;17.30;9.00;;;6.80;99.90;;;;;;5075137;28;20032;-73
2022/01/27 07:59:50;;;;;;;18.85;9.68;;;6.80;99.90;;;;;;5078260;28;20043;-73
2022/01/27 08:02:15;;;;;;;17.67;8.25;;;6.80;99.90;;;;;;5092461;28;20432;-73
2022/01/27 08:04:42;;;;;;;19.80;8.30;;;6.80;99.90;;;;;;5077313;28;20036;-73
2022/01/27 08:07:08;;;;;;;18.15;9.77;;;6.90;99.90;;;;;;5093383;28;20050;-73
2022/01/27 08:09:34;;;;;;;19.45;8.10;;;6.90;99.90;;;;;;5094168;28;20048;-73
2022/01/27 08:11:59;;;;;;;21.60;10.05;;;6.90;99.90;;;;;;5074673;28;20531;-73
2022/01/27 08:14:25;;;;;;;20.30;10.48;;;6.90;99.90;;;;;;5090112;28;20032;-73
2022/01/27 08:16:50;;;;;;;24.95;10.35;;;7.00;99.90;;;;;;5076217;28;20042;-73
2022/01/27 08:19:16;;;;;;;26.88;11.48;;;7.00;99.90;;;;;;5077344;28;20493;-74
2022/01/27 08:21:41;;;;;;;21.45;8.75;;;7.00;99.90;;;;;;5077254;28;20047;-73
2022/01/27 08:24:07;;;;;;;27.35;11.32;;;7.10;99.90;;;;;;5077659;28;20453;-73
2022/01/27 08:26:46;;;;;;;16.73;7.78;;;7.20;99.90;;;;;;5093753;28;20036;-73
2022/01/27 08:29:26;;;;;;;34.22;12.50;;;7.20;99.90;;;;;;5078322;28;20046;-73
2022/01/27 08:31:58;;;;;;;25.35;12.13;;;7.20;99.90;;;;;;5091878;28;20041;-73
2022/01/27 08:34:33;;;;;;;22.38;9.48;;;7.20;99.90;;;;;;5092370;28;20125;-73
2022/01/27 08:37:01;;;;;;;28.77;10.48;;;7.20;99.90;;;;;;5077078;28;20047;-73
2022/01/27 08:39:27;;;;;;;28.25;12.52;;;7.20;99.90;;;;;;5077625;28;20044;-73
2022/01/27 08:41:53;;;;;;;34.13;12.60;;;7.20;99.90;;;;;;5076735;28;20046;-73
2022/01/27 08:44:19;;;;;;;28.83;11.02;;;7.20;99.90;;;;;;5077395;28;20123;-74
2022/01/27 08:46:45;;;;;;;24.45;9.18;;;7.30;99.90;;;;;;5075708;28;20032;-73
2022/01/27 08:49:11;;;;;;;26.05;10.73;;;7.40;99.90;;;;;;5073965;28;20092;-74
2022/01/27 08:51:36;;;;;;;22.70;8.15;;;7.40;99.90;;;;;;5075132;28;20055;-74
2022/01/27 08:54:02;;;;;;;24.23;9.95;;;7.50;99.90;;;;;;5077144;28;20047;-74
2022/01/27 08:56:28;;;;;;;27.52;10.10;;;7.50;99.90;;;;;;5076363;28;20488;-74
2022/01/27 08:58:55;;;;;;;24.02;8.70;;;7.50;99.90;;;;;;5077616;28;20085;-74
2022/01/27 09:01:23;;;;;;;22.65;8.90;;;7.60;99.90;;;;;;5092815;28;20395;-74
2022/01/27 09:03:48;;;;;;;22.30;8.38;;;7.70;99.90;;;;;;5093502;28;20044;-74
2022/01/27 09:06:14;;;;;;;25.77;9.40;;;7.60;99.90;;;;;;5092867;28;20404;-73
2022/01/27 09:08:39;;;;;;;26.98;9.50;;;7.70;99.90;;;;;;5091075;28;20408;-74
2022/01/27 09:11:05;;;;;;;17.02;6.97;;;7.70;99.90;;;;;;5093947;28;20043;-74
2022/01/27 09:13:31;;;;;;;18.17;7.10;;;7.80;99.90;;;;;;5093327;28;20040;-73
2022/01/27 09:15:59;;;;;;;24.50;7.43;;;7.80;99.90;;;;;;5076585;28;20032;-74
2022/01/27 09:18:25;;;;;;;22.70;7.88;;;7.80;99.90;;;;;;5075813;28;20442;-74
2022/01/27 09:20:50;;;;;;;24.80;8.50;;;7.70;99.90;;;;;;5091252;28;20069;-74
2022/01/27 09:23:16;;;;;;;21.75;7.57;;;7.80;99.90;;;;;;5093565;28;20124;-74
2022/01/27 09:25:49;;;;;;;27.40;7.75;;;7.80;99.90;;;;;;5092674;28;20404;-74
2022/01/27 09:28:15;;;;;;;20.98;6.68;;;7.80;99.90;;;;;;5074860;28;20036;-74
2022/01/27 09:30:42;;;;;;;23.52;7.07;;;7.80;99.90;;;;;;5091022;28;20040;-74
2022/01/27 09:33:09;;;;;;;17.00;7.13;;;7.80;99.90;;;;;;5092194;28;20067;-74
2022/01/27 09:35:34;;;;;;;19.67;6.72;;;7.90;99.90;;;;;;5076635;28;20032;-74
2022/01/27 09:38:00;;;;;;;21.75;6.32;;;7.90;99.90;;;;;;5090647;28;20031;-75
2022/01/27 09:40:28;;;;;;;16.58;5.50;;;8.00;99.90;;;;;;5075572;28;20036;-74
2022/01/27 09:42:55;;;;;;;18.70;6.40;;;8.00;99.90;;;;;;5092575;28;20095;-75
2022/01/27 09:45:22;;;;;;;18.58;5.93;;;8.00;99.90;;;;;;5076523;28;20044;-74
2022/01/27 09:47:56;;;;;;;20.13;5.82;;;8.10;99.90;;;;;;5091269;28;20036;-74
2022/01/27 09:50:46;;;;;;;18.77;5.63;;;8.10;99.90;;;;;;5079007;28;20119;-77
2022/01/27 09:53:12;;;;;;;18.98;5.97;;;8.20;99.90;;;;;;5103587;28;20043;-74
2022/01/27 09:55:38;;;;;;;18.23;5.97;;;8.10;99.90;;;;;;5091838;28;20081;-74
2022/01/27 09:58:05;;;;;;;17.23;5.28;;;8.20;99.90;;;;;;5075131;28;20044;-74
2022/01/27 10:00:30;;;;;;;15.63;4.93;;;8.20;99.90;;;;;;5090905;28;20036;-74
2022/01/27 10:03:14;;;;;;;15.30;5.32;;;8.20;99.90;;;;;;5075991;28;20040;-74
2022/01/27 10:05:41;;;;;;;19.00;5.63;;;8.20;99.90;;;;;;5090969;28;20040;-74
2022/01/27 10:08:17;;;;;;;19.08;5.68;;;8.20;99.90;;;;;;5090679;28;20040;-75
2022/01/27 10:10:45;;;;;;;22.08;5.43;;;8.30;99.90;;;;;;5091453;28;20442;-75
2022/01/27 10:13:26;;;;;;;21.10;5.20;;;8.30;99.90;;;;;;5075243;28;20087;-75
2022/01/27 10:15:54;;;;;;;19.02;4.68;;;8.30;99.90;;;;;;5090729;28;20032;-75
2022/01/27 10:18:20;;;;;;;21.42;5.18;;;8.30;99.90;;;;;;5075984;28;20040;-75
2022/01/27 10:20:50;;;;;;;17.88;5.10;;;8.40;99.90;;;;;;5074640;28;20032;-75
2022/01/27 10:23:23;;;;;;;14.38;4.47;;;8.30;99.90;;;;;;5076426;28;20044;-74
2022/01/27 10:25:56;;;;;;;19.42;4.93;;;8.40;99.90;;;;;;5073350;28;20064;-74
2022/01/27 10:28:27;;;;;;;18.67;4.93;;;8.50;99.90;;;;;;5074198;28;20404;-75
2022/01/27 10:31:03;;;;;;;17.35;4.72;;;8.50;99.90;;;;;;5090934;28;20119;-75
2022/01/27 10:33:44;;;;;;;12.68;3.92;;;8.40;99.90;;;;;;5075293;28;20044;-75
2022/01/27 10:36:27;;;;;;;19.73;5.28;;;8.40;99.90;;;;;;5074304;28;20039;-75
2022/01/27 10:39:15;;;;;;;15.95;4.70;;;8.40;99.90;;;;;;5091324;28;20386;-75
2022/01/27 10:42:06;;;;;;;19.70;4.95;;;8.50;99.90;;;;;;5092094;28;20123;-75
2022/01/27 10:44:36;;;;;;;22.35;5.18;;;8.40;99.90;;;;;;5074907;28;20075;-75
2022/01/27 10:47:13;;;;;;;16.17;4.32;;;8.50;99.90;;;;;;5091817;28;20511;-75
2022/01/27 10:49:42;;;;;;;19.55;4.53;;;8.50;99.90;;;;;;5074083;28;20052;-75
2022/01/27 10:52:16;;;;;;;19.05;4.90;;;8.50;99.90;;;;;;5089391;28;20500;-76
2022/01/27 10:54:49;;;;;;;16.10;4.30;;;8.60;99.90;;;;;;5092037;28;20093;-75
2022/01/27 10:57:15;;;;;;;18.23;4.70;;;8.60;99.90;;;;;;5086188;28;20039;-75
2022/01/27 10:59:42;;;;;;;20.60;5.10;;;8.60;99.90;;;;;;5090639;28;20040;-75
2022/01/27 11:02:13;;;;;;;13.25;3.80;;;8.60;99.90;;;;;;5074770;28;20160;-75
2022/01/27 11:04:44;;;;;;;15.23;4.10;;;8.60;99.90;;;;;;5088854;28;20410;-75
2022/01/27 11:07:12;;;;;;;19.67;5.55;;;8.60;99.90;;;;;;5090519;28;20072;-74
2022/01/27 11:09:44;;;;;;;14.70;4.28;;;8.60;99.90;;;;;;5074778;28;20057;-75
2022/01/27 11:12:14;;;;;;;16.50;4.13;;;8.60;99.90;;;;;;5090725;28;20124;-75
2022/01/27 11:14:40;;;;;;;21.08;4.45;;;8.60;99.90;;;;;;5074527;28;20089;-75
2022/01/27 11:17:08;;;;;;;18.33;4.35;;;8.60;99.90;;;;;;5074836;28;20118;-75
2022/01/27 11:19:55;;;;;;;21.35;5.15;;;8.70;99.90;;;;;;5087763;28;20044;-75
2022/01/27 11:22:42;;;;;;;15.43;4.13;;;8.70;99.90;;;;;;5084015;28;20496;-75
2022/01/27 11:25:50;;;;;;;20.35;4.15;;;8.80;99.90;;;;;;5072407;28;20040;-75
2022/01/27 11:27:58;;;;;;;12.15;2.92;;;8.70;99.90;;;;;;5093716;28;20054;-75
2022/01/27 11:30:43;;;;;;;17.02;3.80;;;8.80;99.90;;;;;;5077124;28;20047;-75
2022/01/27 11:33:14;;;;;;;16.45;4.28;;;8.90;99.90;;;;;;5094823;28;20036;-75
2022/01/27 11:35:40;;;;;;;13.88;3.58;;;8.80;99.90;;;;;;5078892;28;20396;-75
2022/01/27 11:38:08;;;;;;;16.15;4.30;;;8.80;99.90;;;;;;5094639;28;20511;-75
2022/01/27 11:40:39;;;;;;;16.65;3.80;;;8.90;99.90;;;;;;5096134;28;20040;-75
2022/01/27 11:43:06;;;;;;;21.52;4.22;;;8.90;99.90;;;;;;5077593;28;20126;-75
2022/01/27 11:45:34;;;;;;;11.60;3.10;;;8.90;99.90;;;;;;5078526;28;20089;-75
2022/01/27 11:48:10;;;;;;;18.27;3.70;;;8.90;99.90;;;;;;5074723;28;20173;-75
2022/01/27 11:50:49;;;;;;;16.45;3.65;;;8.90;99.90;;;;;;5095648;28;20055;-75
2022/01/27 11:53:31;;;;;;;19.73;4.72;;;8.90;99.90;;;;;;5076564;28;20052;-75
2022/01/27 11:55:57;;;;;;;;;;;8.90;99.90;;;;;;5094472;28;20044;-75
2022/01/27 11:58:25;;;;;;;14.90;2.95;;;9.00;99.90;;;;;;5095262;28;19955;-75
2022/01/27 12:01:06;;;;;;;19.80;3.78;;;9.00;99.90;;;;;;5094705;28;20079;-75
2022/01/27 12:03:33;;;;;;;18.50;3.13;;;9.00;99.90;;;;;;5075818;28;20032;-75
2022/01/27 12:06:21;;;;;;;13.75;3.17;;;9.10;99.90;;;;;;5092750;28;20481;-75
2022/01/27 12:08:48;;;;;;;14.35;2.90;;;9.00;99.90;;;;;;5093407;28;20020;-75
2022/01/27 12:11:55;;;;;;;15.55;2.60;;;9.00;99.90;;;;;;5095167;28;20040;-75
2022/01/27 12:14:29;;;;;;;18.10;3.53;;;9.00;99.90;;;;;;5077185;28;21148;-75
2022/01/27 12:17:10;;;;;;;13.70;2.75;;;9.10;99.90;;;;;;5069345;28;20051;-75
2022/01/27 12:19:56;;;;;;;14.50;3.63;;;9.10;99.90;;;;;;5089885;28;20043;-75
2022/01/27 12:22:45;;;;;;;16.35;3.05;;;9.10;99.90;;;;;;5093766;28;20044;-75
2022/01/27 12:25:12;;;;;;;18.27;3.05;;;9.10;99.90;;;;;;5077898;28;20044;-75
2022/01/27 12:27:39;;;;;;;13.40;3.28;;;9.10;99.90;;;;;;5076317;28;20036;-75
2022/01/27 12:30:09;;;;;;;14.02;2.80;;;9.10;99.90;;;;;;5076954;28;20392;-75
2022/01/27 12:32:35;;;;;;;14.98;2.88;;;9.10;99.90;;;;;;5076603;28;20059;-75
2022/01/27 12:35:03;;;;;;;13.10;2.75;;;9.00;99.90;;;;;;5071225;28;20035;-75
2022/01/27 12:37:37;;;;;;;17.50;3.08;;;9.10;99.90;;;;;;5088989;28;20127;-75
2022/01/27 12:40:09;;;;;;;17.35;2.78;;;9.00;99.90;;;;;;5091556;28;20028;-75
2022/01/27 12:42:37;;;;;;;21.80;4.07;;;9.00;99.90;;;;;;5094235;28;20040;-75
2022/01/27 12:45:10;;;;;;;17.80;2.97;;;9.10;99.90;;;;;;5093585;28;20039;-75
2022/01/27 12:47:46;;;;;;;19.23;4.00;;;9.00;99.90;;;;;;5089055;28;20399;-75
2022/01/27 12:50:20;;;;;;;12.88;2.97;;;9.00;99.90;;;;;;5093322;28;20059;-75
2022/01/27 12:52:47;;;;;;;15.30;3.03;;;9.00;99.90;;;;;;5074456;28;20036;-75
2022/01/27 12:55:22;;;;;;;17.60;3.00;;;8.90;99.90;;;;;;5088098;28;20028;-75
2022/01/27 12:57:59;;;;;;;17.70;2.95;;;8.90;99.90;;;;;;5081763;28;20035;-75
2022/01/27 13:00:28;;;;;;;19.17;3.05;;;8.90;99.90;;;;;;5092488;28;20039;-75
2022/01/27 13:03:01;;;;;;;20.23;3.10;;;8.90;99.90;;;;;;5093613;28;20040;-75
2022/01/27 13:05:37;;;;;;;19.00;3.10;;;9.00;99.90;;;;;;5093213;28;20146;-75
2022/01/27 13:08:09;;;;;;;17.48;3.38;;;9.00;99.90;;;;;;5057304;28;20059;-75
2022/01/27 13:10:35;;;;;;;16.17;3.33;;;9.00;99.90;;;;;;5066394;28;20085;-75
2022/01/27 13:13:11;;;;;;;17.33;3.00;;;9.00;99.90;;;;;;5075821;28;20488;-76
2022/01/27 13:15:36;;;;;;;18.35;2.88;;;8.90;99.90;;;;;;5095345;28;20500;-75
2022/01/27 13:18:20;;;;;;;14.57;2.90;;;9.00;99.90;;;;;;5092347;28;20119;-75
2022/01/27 13:20:52;;;;;;;18.52;3.42;;;9.00;99.90;;;;;;5091357;28;20430;-75